Time;durP1;ratioP1;P1;durP2;ratioP2;P2;SDS_P1;SDS_P2;PMS_P1;PMS_P2;Temp;Humidity;BMP_temperature;BMP_pressure;BME280_temperature;BME280_humidity;BME280_pressure;Samples;Min_cycle;Max_cycle;Signal;HPM_P1;HPM_P2
2021/09/07 00:01:18;;;;;;;6.70;3.90;;;;;;;11.09;70.39;97528.24;115906;1188;23298;-85
2021/09/07 00:03:47;;;;;;;7.60;3.70;;;;;;;11.10;70.35;97523.58;115810;1191;24836;-85
2021/09/07 00:06:17;;;;;;;8.60;3.60;;;;;;;11.12;70.29;97523.33;115873;1188;27037;-85
2021/09/07 00:08:46;;;;;;;6.80;3.40;;;;;;;11.12;70.12;97523.23;115861;1188;23636;-86
2021/09/07 00:11:15;;;;;;;8.80;3.60;;;;;;;11.12;70.09;97527.25;115823;1189;25289;-85
2021/09/07 00:13:44;;;;;;;8.60;4.20;;;;;;;11.10;70.10;97520.45;115846;1189;25203;-85
2021/09/07 00:16:13;;;;;;;6.80;3.70;;;;;;;11.10;70.14;97521.14;115858;1189;22660;-85
2021/09/07 00:18:41;;;;;;;7.70;3.80;;;;;;;11.10;70.07;97517.63;115805;1188;25237;-86
2021/09/07 00:21:09;;;;;;;6.70;3.80;;;;;;;11.11;70.16;97516.25;115820;1189;24286;-85
2021/09/07 00:23:38;;;;;;;7.60;4.20;;;;;;;11.13;70.18;97514.91;115879;1189;22864;-85
2021/09/07 00:26:07;;;;;;;6.70;3.80;;;;;;;11.11;70.17;97515.09;115825;1192;24765;-85
2021/09/07 00:28:35;;;;;;;6.80;3.90;;;;;;;11.08;70.31;97511.15;115817;1189;42364;-84
2021/09/07 00:31:03;;;;;;;7.50;3.80;;;;;;;11.08;70.38;97508.13;115846;1196;31694;-85
2021/09/07 00:33:32;;;;;;;7.50;3.50;;;;;;;11.04;70.45;97506.05;115881;1195;23947;-85
2021/09/07 00:36:01;;;;;;;7.10;3.80;;;;;;;11.02;70.37;97505.41;115857;1196;22565;-85
2021/09/07 00:38:29;;;;;;;7.00;3.70;;;;;;;11.02;70.32;97498.25;115860;1188;23361;-85
2021/09/07 00:40:57;;;;;;;5.30;3.20;;;;;;;11.07;70.29;97490.23;115827;1188;23237;-85
2021/09/07 00:43:25;;;;;;;7.20;3.80;;;;;;;11.10;70.35;97483.56;115866;1189;45209;-84
2021/09/07 00:45:53;;;;;;;6.80;3.50;;;;;;;11.15;70.07;97487.52;115835;1195;22795;-84
2021/09/07 00:48:22;;;;;;;6.80;3.40;;;;;;;11.20;69.94;97485.89;115924;1188;26464;-85
2021/09/07 00:50:50;;;;;;;6.60;3.10;;;;;;;11.20;69.83;97484.35;115881;1191;24773;-84
2021/09/07 00:53:18;;;;;;;8.80;3.80;;;;;;;11.20;69.65;97488.59;115930;1189;24196;-85
2021/09/07 00:55:47;;;;;;;6.80;3.70;;;;;;;11.21;69.66;97486.52;115836;1189;25639;-85
2021/09/07 00:58:18;;;;;;;6.80;3.50;;;;;;;11.19;69.67;97482.44;115878;1188;25605;-85
2021/09/07 01:00:45;;;;;;;;;;;;;;;11.16;69.71;97485.09;115908;1188;22710;-84
2021/09/07 01:03:13;;;;;;;7.10;3.80;;;;;;;11.13;69.71;97483.86;115863;1188;24306;-84
2021/09/07 01:05:43;;;;;;;6.30;3.30;;;;;;;11.13;69.75;97479.14;115884;1188;32755;-84
2021/09/07 01:08:12;;;;;;;5.80;3.30;;;;;;;11.15;69.68;97476.65;115891;1189;25311;-84
2021/09/07 01:10:40;;;;;;;6.80;3.50;;;;;;;11.22;69.66;97478.02;115792;1189;23211;-85
2021/09/07 01:13:08;;;;;;;6.30;3.50;;;;;;;11.22;69.49;97478.09;115829;1189;24969;-85
2021/09/07 01:15:37;;;;;;;5.90;3.30;;;;;;;11.20;69.45;97476.64;115835;1196;23329;-85
2021/09/07 01:18:05;;;;;;;7.10;3.80;;;;;;;11.20;69.43;97477.60;115801;1196;26621;-85
2021/09/07 01:20:33;;;;;;;6.40;3.40;;;;;;;11.16;69.51;97478.08;115860;1189;23672;-86
2021/09/07 01:23:01;;;;;;;7.50;3.50;;;;;;;11.13;69.39;97478.13;115817;1189;25271;-84
2021/09/07 01:25:29;;;;;;;6.40;3.80;;;;;;;11.08;69.49;97475.02;115866;1188;28459;-84
2021/09/07 01:27:57;;;;;;;7.70;3.90;;;;;;;11.04;69.51;97470.34;115827;1184;34267;-85
2021/09/07 01:30:25;;;;;;;8.70;4.20;;;;;;;11.04;69.65;97474.42;115855;1189;45249;-85
2021/09/07 01:32:53;;;;;;;6.80;3.90;;;;;;;11.06;69.73;97467.57;115869;1188;28855;-81
2021/09/07 01:35:21;;;;;;;8.10;4.30;;;;;;;11.09;69.61;97471.57;115907;1189;23905;-85
2021/09/07 01:37:50;;;;;;;9.70;4.50;;;;;;;11.13;69.50;97467.14;115933;1189;24598;-85
2021/09/07 01:40:18;;;;;;;8.70;4.40;;;;;;;11.13;69.55;97468.88;115851;1189;22459;-85
2021/09/07 01:42:46;;;;;;;8.80;3.90;;;;;;;11.11;69.58;97467.11;115895;1189;24588;-84
2021/09/07 01:45:14;;;;;;;7.80;4.00;;;;;;;11.09;69.53;97463.65;115843;1188;24430;-84
2021/09/07 01:47:42;;;;;;;6.60;3.70;;;;;;;11.09;69.61;97461.32;115815;1192;25435;-86
2021/09/07 01:50:12;;;;;;;7.50;4.20;;;;;;;11.11;69.46;97463.98;115879;1189;25625;-85
2021/09/07 01:52:41;;;;;;;9.20;4.70;;;;;;;11.09;69.53;97467.95;115818;1189;23545;-85
2021/09/07 01:55:10;;;;;;;7.50;4.50;;;;;;;11.06;69.54;97467.27;115807;1188;23040;-85
2021/09/07 01:57:38;;;;;;;7.30;4.70;;;;;;;11.03;69.49;97469.27;115829;1194;22653;-85
2021/09/07 02:00:08;;;;;;;6.40;3.90;;;;;;;11.01;69.40;97464.59;115831;1189;23052;-85
2021/09/07 02:02:36;;;;;;;7.80;4.30;;;;;;;11.00;69.55;97464.81;115856;1188;24132;-85
2021/09/07 02:05:06;;;;;;;8.80;4.60;;;;;;;11.00;69.64;97462.00;115894;1194;22957;-86
2021/09/07 02:07:35;;;;;;;10.10;4.80;;;;;;;11.03;69.72;97468.15;115855;1189;23947;-86
2021/09/07 02:10:03;;;;;;;7.10;4.40;;;;;;;11.04;69.61;97465.77;115869;1189;24482;-86
2021/09/07 02:12:31;;;;;;;8.60;4.40;;;;;;;11.07;69.69;97464.86;115826;1189;24740;-85
2021/09/07 02:15:00;;;;;;;6.60;4.20;;;;;;;11.12;69.62;97468.13;115805;1189;23960;-86
2021/09/07 02:17:28;;;;;;;8.30;4.50;;;;;;;11.16;69.58;97468.73;115849;1189;23434;-85
2021/09/07 02:19:56;;;;;;;8.60;4.80;;;;;;;11.19;69.50;97468.47;115880;1194;23979;-85
2021/09/07 02:22:25;;;;;;;7.20;4.20;;;;;;;11.22;69.43;97470.50;115855;1189;30501;-84
2021/09/07 02:24:53;;;;;;;8.70;4.50;;;;;;;11.23;69.41;97471.23;115906;1189;22420;-85
2021/09/07 02:27:21;;;;;;;8.50;4.30;;;;;;;11.22;69.47;97466.41;115933;1189;22984;-85
2021/09/07 02:29:50;;;;;;;7.50;4.30;;;;;;;11.23;69.41;97465.98;115907;1189;24083;-86
2021/09/07 02:32:18;;;;;;;7.40;4.10;;;;;;;11.24;69.37;97466.14;115841;1188;26359;-85
2021/09/07 02:34:47;;;;;;;9.30;4.30;;;;;;;11.25;69.41;97460.48;115876;1188;24081;-85
2021/09/07 02:37:15;;;;;;;10.10;4.90;;;;;;;11.29;69.28;97461.77;115885;1189;26127;-84
2021/09/07 02:39:43;;;;;;;6.50;4.30;;;;;;;11.31;69.26;97463.42;115865;1189;24091;-86
2021/09/07 02:42:11;;;;;;;9.00;4.80;;;;;;;11.31;69.25;97462.57;115840;1190;27685;-84
2021/09/07 02:44:39;;;;;;;6.90;4.00;;;;;;;11.28;69.27;97460.45;115898;1185;24135;-85
2021/09/07 02:47:09;;;;;;;9.70;4.50;;;;;;;11.23;69.40;97457.75;115847;1188;22611;-85
2021/09/07 02:49:37;;;;;;;6.80;4.40;;;;;;;11.18;69.36;97458.70;115882;1189;25117;-85
2021/09/07 02:52:06;;;;;;;7.70;4.20;;;;;;;11.16;69.55;97458.29;115853;1190;25154;-85
2021/09/07 02:54:34;;;;;;;6.10;3.90;;;;;;;11.14;69.41;97460.40;115855;1196;26111;-85
2021/09/07 02:57:02;;;;;;;9.50;4.40;;;;;;;11.11;69.65;97461.17;115921;1192;22424;-84
2021/09/07 02:59:30;;;;;;;10.40;4.30;;;;;;;11.08;69.65;97463.17;115854;1189;23721;-84
2021/09/07 03:01:58;;;;;;;8.50;4.20;;;;;;;11.07;69.79;97463.80;115887;1192;23737;-85
2021/09/07 03:04:27;;;;;;;8.50;4.60;;;;;;;11.07;69.91;97457.75;115825;1189;27098;-85
2021/09/07 03:06:55;;;;;;;7.70;4.00;;;;;;;11.07;69.87;97456.80;115856;1189;23240;-84
2021/09/07 03:09:23;;;;;;;8.50;4.40;;;;;;;11.08;69.91;97459.62;115928;1192;22757;-84
2021/09/07 03:11:51;;;;;;;7.50;4.40;;;;;;;11.09;69.88;97459.73;115919;1192;24385;-85
2021/09/07 03:14:19;;;;;;;7.90;4.40;;;;;;;11.11;69.97;97458.08;115942;1193;25160;-85
2021/09/07 03:16:48;;;;;;;7.60;4.30;;;;;;;11.11;69.97;97457.55;115842;1190;23405;-85
2021/09/07 03:19:16;;;;;;;9.20;4.60;;;;;;;11.15;70.14;97461.25;115882;1192;24157;-84
2021/09/07 03:21:44;;;;;;;9.40;4.10;;;;;;;11.18;70.07;97463.02;115842;1196;22721;-84
2021/09/07 03:24:12;;;;;;;7.30;4.20;;;;;;;11.20;69.91;97461.52;115894;1189;22666;-85
2021/09/07 03:26:40;;;;;;;7.40;4.30;;;;;;;11.23;69.85;97454.20;115881;1188;27228;-84
2021/09/07 03:29:09;;;;;;;8.50;4.40;;;;;;;11.24;69.87;97454.20;115875;1192;23602;-86
2021/09/07 03:31:38;;;;;;;7.40;4.10;;;;;;;11.24;69.96;97451.65;115865;1193;25492;-85
2021/09/07 03:34:06;;;;;;;6.00;3.90;;;;;;;11.24;70.01;97452.34;115852;1189;24325;-85
2021/09/07 03:36:34;;;;;;;6.60;4.00;;;;;;;11.27;69.96;97458.43;115915;1196;25221;-85
2021/09/07 03:39:02;;;;;;;6.90;4.10;;;;;;;11.28;69.98;97457.26;115873;1189;23855;-85
2021/09/07 03:41:30;;;;;;;6.50;3.90;;;;;;;11.28;69.97;97463.52;115874;1193;23008;-85
2021/09/07 03:43:58;;;;;;;6.90;4.10;;;;;;;11.28;70.06;97463.84;115850;1192;25015;-84
2021/09/07 03:46:27;;;;;;;8.00;4.40;;;;;;;11.26;69.95;97466.47;115888;1193;24153;-84
2021/09/07 03:48:56;;;;;;;8.00;4.50;;;;;;;11.23;70.06;97469.12;115887;1189;29346;-84
2021/09/07 03:51:24;;;;;;;8.30;4.40;;;;;;;11.21;70.07;97472.92;115869;1189;33361;-84
2021/09/07 03:53:52;;;;;;;8.60;3.80;;;;;;;11.21;70.15;97475.70;115905;1193;57728;-85
2021/09/07 03:56:20;;;;;;;8.40;4.50;;;;;;;11.19;70.20;97474.00;115894;1189;23562;-85
2021/09/07 03:58:48;;;;;;;6.90;4.10;;;;;;;11.16;70.20;97471.61;115929;1189;23104;-86
2021/09/07 04:01:17;;;;;;;6.90;4.20;;;;;;;11.13;70.22;97473.72;115835;1188;24163;-84
2021/09/07 04:03:45;;;;;;;9.40;4.80;;;;;;;11.11;70.19;97473.11;115860;1193;28129;-85
2021/09/07 04:06:13;;;;;;;5.80;3.60;;;;;;;11.08;70.23;97477.08;115827;1189;26293;-85
2021/09/07 04:08:41;;;;;;;9.50;4.80;;;;;;;11.06;70.31;97471.08;115859;1189;25128;-85
2021/09/07 04:11:09;;;;;;;7.90;4.60;;;;;;;11.04;70.55;97473.25;115848;1189;25081;-85
2021/09/07 04:13:39;;;;;;;5.90;3.90;;;;;;;11.02;70.47;97468.63;115819;1191;25058;-86
2021/09/07 04:16:07;;;;;;;9.80;5.00;;;;;;;11.01;70.64;97464.13;115870;1196;25759;-85
2021/09/07 04:18:36;;;;;;;7.60;4.00;;;;;;;11.03;70.82;97464.91;115834;1193;24018;-86
2021/09/07 04:21:05;;;;;;;6.30;3.70;;;;;;;11.05;70.82;97466.89;115852;1193;30651;-85
2021/09/07 04:23:33;;;;;;;8.00;4.10;;;;;;;11.12;70.84;97469.77;115824;1190;24571;-85
2021/09/07 04:26:01;;;;;;;6.70;3.70;;;;;;;11.24;70.70;97468.55;115855;1189;24296;-85
2021/09/07 04:28:29;;;;;;;7.30;3.80;;;;;;;11.34;70.59;97473.55;115843;1194;23727;-85
2021/09/07 04:30:58;;;;;;;7.10;4.60;;;;;;;11.48;70.38;97467.33;115860;1189;22408;-85
2021/09/07 04:33:26;;;;;;;6.60;4.10;;;;;;;11.60;70.17;97474.25;115819;1190;29137;-84
2021/09/07 04:35:54;;;;;;;8.70;4.20;;;;;;;11.73;69.87;97472.05;115869;1190;22527;-84
2021/09/07 04:38:22;;;;;;;6.10;3.90;;;;;;;11.79;69.66;97471.80;115921;1190;25277;-85
2021/09/07 04:40:50;;;;;;;8.40;4.40;;;;;;;11.98;69.57;97473.42;115906;1189;25055;-85
2021/09/07 04:43:18;;;;;;;6.20;3.70;;;;;;;12.23;69.16;97479.11;115907;1190;29413;-85
2021/09/07 04:45:46;;;;;;;8.00;4.20;;;;;;;12.30;68.53;97477.93;115866;1189;25141;-85
2021/09/07 04:48:15;;;;;;;6.70;3.70;;;;;;;12.14;68.42;97482.62;115870;1189;23658;-85
2021/09/07 04:50:43;;;;;;;7.10;4.30;;;;;;;11.98;68.69;97479.32;115813;1189;23122;-86
2021/09/07 04:53:12;;;;;;;6.40;3.70;;;;;;;11.92;68.85;97482.09;115854;1189;25087;-86
2021/09/07 04:55:40;;;;;;;8.00;4.00;;;;;;;11.92;68.94;97482.40;115865;1190;26796;-85
2021/09/07 04:58:08;;;;;;;6.60;4.00;;;;;;;11.92;68.95;97481.27;115869;1190;22428;-85
2021/09/07 05:00:36;;;;;;;6.50;4.20;;;;;;;11.93;68.88;97482.39;115850;1184;26358;-86
2021/09/07 05:03:05;;;;;;;7.80;4.10;;;;;;;11.93;68.85;97478.79;115842;1196;26572;-84
2021/09/07 05:05:33;;;;;;;6.30;3.90;;;;;;;11.93;68.92;97475.54;115874;1190;24393;-85
2021/09/07 05:08:01;;;;;;;8.10;4.10;;;;;;;11.95;69.17;97478.04;115868;1196;27042;-85
2021/09/07 05:10:30;;;;;;;5.50;3.70;;;;;;;12.01;69.05;97475.77;115822;1189;27308;-84
2021/09/07 05:12:59;;;;;;;6.20;4.00;;;;;;;12.14;69.18;97479.86;115883;1192;24045;-84
2021/09/07 05:15:27;;;;;;;6.60;3.80;;;;;;;12.48;68.93;97477.64;115848;1189;25919;-84
2021/09/07 05:17:55;;;;;;;8.10;4.50;;;;;;;12.73;68.38;97478.59;115840;1190;22980;-84
2021/09/07 05:20:24;;;;;;;7.20;3.80;;;;;;;13.02;68.10;97474.30;115870;1190;22894;-84
2021/09/07 05:22:52;;;;;;;8.10;4.40;;;;;;;13.33;67.19;97476.53;115956;1189;24220;-85
2021/09/07 05:25:20;;;;;;;5.70;3.80;;;;;;;13.52;66.69;97474.78;115885;1189;24005;-84
2021/09/07 05:27:49;;;;;;;5.70;3.60;;;;;;;13.57;66.20;97475.81;115935;1189;26139;-84
2021/09/07 05:30:18;;;;;;;9.20;4.00;;;;;;;13.60;65.89;97476.86;115901;1196;23598;-85
2021/09/07 05:32:46;;;;;;;5.90;3.60;;;;;;;13.72;66.05;97473.00;115842;1196;23684;-84
2021/09/07 05:35:15;;;;;;;7.80;4.10;;;;;;;13.84;65.14;97470.91;115813;1189;25067;-84
2021/09/07 05:37:43;;;;;;;5.70;3.60;;;;;;;13.95;65.03;97473.00;115869;1189;25226;-84
2021/09/07 05:40:13;;;;;;;8.40;3.50;;;;;;;14.25;64.36;97473.71;115835;1189;28981;-84
2021/09/07 05:42:43;;;;;;;6.50;3.60;;;;;;;14.57;64.02;97478.52;115863;1192;25352;-85
2021/09/07 05:45:14;;;;;;;5.40;3.60;;;;;;;15.00;63.38;97471.58;115848;1189;24484;-85
2021/09/07 05:47:41;;;;;;;;;;;;;;;15.18;62.23;97470.45;115879;1190;23653;-84
2021/09/07 05:50:14;;;;;;;7.10;3.60;;;;;;;15.09;61.59;97471.58;115861;1190;22437;-83
2021/09/07 05:52:43;;;;;;;6.60;3.70;;;;;;;14.93;61.73;97474.52;115846;1193;24529;-84
2021/09/07 05:55:12;;;;;;;6.40;3.80;;;;;;;14.94;62.13;97477.16;115827;1192;22561;-83
2021/09/07 05:57:40;;;;;;;6.90;4.30;;;;;;;15.19;62.08;97476.77;115854;1196;25076;-85
2021/09/07 06:00:11;;;;;;;9.00;3.60;;;;;;;15.33;61.62;97477.27;115840;1190;22877;-85
2021/09/07 06:02:40;;;;;;;5.50;4.00;;;;;;;15.57;61.39;97481.29;115866;1196;23224;-84
2021/09/07 06:05:11;;;;;;;5.90;3.50;;;;;;;15.92;61.05;97475.88;115819;1193;28274;-82
2021/09/07 06:07:38;;;;;;;;;;;;;;;16.08;59.18;97477.23;115865;1190;23238;-84
2021/09/07 06:10:08;;;;;;;8.70;4.10;;;;;;;15.81;58.83;97478.09;115831;1189;24227;-85
2021/09/07 06:12:36;;;;;;;6.10;3.70;;;;;;;15.65;59.25;97487.77;115838;1190;24867;-85
2021/09/07 06:15:06;;;;;;;4.70;3.40;;;;;;;15.51;59.37;97486.61;115865;1189;23345;-83
2021/09/07 06:17:34;;;;;;;6.80;3.80;;;;;;;15.37;59.52;97486.79;115856;1190;28367;-83
2021/09/07 06:20:03;;;;;;;7.40;3.60;;;;;;;15.28;59.76;97490.01;115841;1190;24194;-84
2021/09/07 06:22:31;;;;;;;5.00;3.40;;;;;;;15.37;59.85;97491.48;115863;1189;24844;-86
2021/09/07 06:25:00;;;;;;;7.50;3.50;;;;;;;15.65;59.49;97490.70;115862;1189;26124;-83
2021/09/07 06:27:30;;;;;;;7.50;3.60;;;;;;;15.87;58.70;97488.80;115872;1185;32372;-83
2021/09/07 06:29:58;;;;;;;7.00;3.60;;;;;;;16.63;58.64;97493.86;115857;1189;24478;-84
2021/09/07 06:32:26;;;;;;;6.50;3.40;;;;;;;17.98;57.96;97491.71;115774;1190;29514;-83
2021/09/07 06:34:55;;;;;;;6.40;3.50;;;;;;;18.64;55.56;97491.13;115852;1189;23814;-83
2021/09/07 06:37:23;;;;;;;5.70;3.70;;;;;;;18.75;54.30;97495.88;115875;1189;24041;-84
2021/09/07 06:39:52;;;;;;;5.60;3.50;;;;;;;18.31;53.79;97501.94;115850;1189;24126;-84
2021/09/07 06:42:20;;;;;;;4.60;3.50;;;;;;;17.93;54.33;97502.85;115899;1196;24986;-85
2021/09/07 06:44:48;;;;;;;6.50;3.80;;;;;;;17.91;54.86;97506.91;115818;1193;26858;-85
2021/09/07 06:47:17;;;;;;;7.30;4.10;;;;;;;18.47;53.81;97501.50;115777;1189;22961;-85
2021/09/07 06:49:45;;;;;;;6.80;3.30;;;;;;;19.42;53.85;97502.70;115836;1196;23018;-85
2021/09/07 06:52:14;;;;;;;5.90;3.30;;;;;;;20.51;52.08;97502.27;115839;1196;22877;-84
2021/09/07 06:54:42;;;;;;;5.80;3.60;;;;;;;21.10;50.82;97503.55;115747;1188;24067;-84
2021/09/07 06:57:11;;;;;;;5.20;3.70;;;;;;;21.31;49.82;97506.89;115840;1189;24624;-85
2021/09/07 06:59:39;;;;;;;4.90;3.60;;;;;;;21.72;48.68;97511.84;115844;1189;22788;-84
2021/09/07 07:02:07;;;;;;;5.30;3.30;;;;;;;22.40;47.25;97510.02;115899;1190;25183;-84
2021/09/07 07:04:36;;;;;;;7.90;3.80;;;;;;;23.19;46.27;97504.02;115863;1193;34132;-84
2021/09/07 07:07:05;;;;;;;5.40;3.10;;;;;;;24.07;45.87;97509.27;115851;1189;24061;-84
2021/09/07 07:09:33;;;;;;;6.00;3.50;;;;;;;24.72;43.17;97509.99;115842;1189;25059;-84
2021/09/07 07:12:01;;;;;;;5.80;3.50;;;;;;;24.25;42.21;97505.44;115879;1189;23935;-84
2021/09/07 07:14:30;;;;;;;6.30;3.60;;;;;;;23.88;42.66;97507.11;115874;1189;25262;-83
2021/09/07 07:16:58;;;;;;;4.90;3.80;;;;;;;23.82;42.63;97507.23;115781;1185;34695;-84
2021/09/07 07:19:26;;;;;;;4.50;3.40;;;;;;;23.55;42.55;97509.19;115843;1189;23414;-84
2021/09/07 07:21:55;;;;;;;6.00;3.70;;;;;;;23.59;43.07;97511.74;115804;1190;23909;-82
2021/09/07 07:24:23;;;;;;;4.10;3.10;;;;;;;23.72;42.70;97508.19;115892;1191;25087;-84
2021/09/07 07:26:51;;;;;;;6.10;3.60;;;;;;;23.09;41.38;97506.17;115901;1190;25007;-85
2021/09/07 07:29:20;;;;;;;4.50;3.10;;;;;;;22.39;42.48;97509.92;115886;1190;22530;-84
2021/09/07 07:31:48;;;;;;;5.20;3.40;;;;;;;22.00;43.51;97515.30;115792;1189;24855;-84
2021/09/07 07:34:17;;;;;;;5.90;3.20;;;;;;;21.59;44.03;97517.36;115813;1196;27680;-84
2021/09/07 07:36:45;;;;;;;6.20;3.50;;;;;;;20.89;43.96;97514.23;115784;1188;27141;-84
2021/09/07 07:39:14;;;;;;;6.00;3.40;;;;;;;19.82;44.92;97512.30;115847;1196;22781;-84
2021/09/07 07:41:43;;;;;;;5.60;3.40;;;;;;;19.00;46.41;97519.04;115754;1189;24938;-84
2021/09/07 07:44:11;;;;;;;4.70;3.40;;;;;;;18.51;47.35;97519.38;115826;1189;24304;-84
2021/09/07 07:46:39;;;;;;;5.50;3.30;;;;;;;18.00;48.88;97525.27;115848;1191;24056;-84
2021/09/07 07:49:07;;;;;;;6.70;3.70;;;;;;;17.59;49.98;97519.70;115838;1189;22880;-84
2021/09/07 07:51:36;;;;;;;6.70;4.00;;;;;;;17.36;50.71;97520.94;115822;1190;25685;-84
2021/09/07 07:54:08;;;;;;;6.10;3.60;;;;;;;17.13;51.46;97527.17;115825;1190;25599;-84
2021/09/07 07:56:37;;;;;;;6.60;3.60;;;;;;;17.07;52.28;97527.95;115830;1189;23393;-84
2021/09/07 07:59:06;;;;;;;7.40;4.10;;;;;;;17.05;52.38;97531.57;115868;1196;25322;-84
2021/09/07 08:01:34;;;;;;;6.20;3.80;;;;;;;17.04;52.82;97532.03;115879;1189;23379;-85
2021/09/07 08:04:03;;;;;;;7.30;4.30;;;;;;;17.14;53.03;97537.23;115866;1189;22704;-84
2021/09/07 08:06:32;;;;;;;7.50;3.50;;;;;;;17.27;52.81;97534.45;115864;1188;22922;-83
2021/09/07 08:09:01;;;;;;;5.30;3.30;;;;;;;17.28;52.72;97533.17;115810;1196;23151;-84
2021/09/07 08:11:29;;;;;;;5.60;3.50;;;;;;;17.51;53.22;97532.31;115869;1189;25106;-83
2021/09/07 08:13:57;;;;;;;6.30;4.00;;;;;;;17.85;52.80;97531.45;115826;1188;24122;-83
2021/09/07 08:16:25;;;;;;;5.70;3.70;;;;;;;18.07;52.73;97533.36;115813;1188;26984;-84
2021/09/07 08:18:53;;;;;;;5.80;3.70;;;;;;;18.05;52.15;97536.54;115920;1189;22449;-85
2021/09/07 08:21:22;;;;;;;8.90;4.10;;;;;;;18.03;52.51;97537.67;115857;1192;27205;-84
2021/09/07 08:23:50;;;;;;;6.00;3.40;;;;;;;18.07;52.89;97536.31;115890;1190;24151;-84
2021/09/07 08:26:18;;;;;;;8.00;3.70;;;;;;;18.30;53.38;97538.09;115830;1185;24797;-85
2021/09/07 08:28:47;;;;;;;5.80;3.40;;;;;;;18.53;53.13;97538.09;115839;1189;22830;-84
2021/09/07 08:31:16;;;;;;;6.80;4.20;;;;;;;18.62;53.22;97537.19;115908;1189;25314;-84
2021/09/07 08:33:44;;;;;;;6.10;3.90;;;;;;;18.64;53.16;97540.14;115847;1188;30686;-84
2021/09/07 08:36:13;;;;;;;7.00;4.10;;;;;;;18.56;52.56;97534.25;115809;1189;24025;-84
2021/09/07 08:38:41;;;;;;;7.30;3.80;;;;;;;18.46;52.87;97541.34;115836;1189;24246;-85
2021/09/07 08:41:09;;;;;;;7.10;3.90;;;;;;;18.55;53.26;97546.34;115805;1188;24694;-85
2021/09/07 08:43:41;;;;;;;5.60;3.70;;;;;;;18.70;53.46;97543.90;115859;1188;23383;-84
2021/09/07 08:46:10;;;;;;;7.30;4.10;;;;;;;18.66;53.33;97544.11;115810;1189;24503;-82
2021/09/07 08:48:39;;;;;;;5.90;3.50;;;;;;;18.56;53.02;97544.84;115807;1188;25431;-84
2021/09/07 08:51:07;;;;;;;5.60;3.80;;;;;;;18.54;53.63;97546.31;115863;1196;23295;-84
2021/09/07 08:53:36;;;;;;;7.30;3.60;;;;;;;18.66;53.58;97543.12;115811;1188;25123;-84
2021/09/07 08:56:06;;;;;;;7.90;4.40;;;;;;;18.71;53.32;97542.04;115860;1196;25245;-84
2021/09/07 08:58:35;;;;;;;7.00;4.40;;;;;;;18.93;53.85;97546.27;115831;1188;24823;-84
2021/09/07 09:01:12;;;;;;;6.70;4.00;;;;;;;19.25;53.46;97548.38;115834;1189;22625;-84
2021/09/07 09:03:42;;;;;;;6.60;4.20;;;;;;;19.64;53.54;97547.83;115915;1188;23593;-85
2021/09/07 09:06:11;;;;;;;6.10;4.00;;;;;;;19.86;52.85;97546.19;115846;1188;25124;-84
2021/09/07 09:08:42;;;;;;;6.90;4.10;;;;;;;20.10;52.46;97546.88;115829;1189;23133;-84
2021/09/07 09:11:12;;;;;;;6.70;4.20;;;;;;;20.38;52.05;97542.76;115865;1188;25776;-84
2021/09/07 09:13:46;;;;;;;6.80;4.20;;;;;;;20.78;51.45;97542.13;115822;1188;24362;-84
2021/09/07 09:16:16;;;;;;;7.90;4.50;;;;;;;20.96;51.12;97543.21;115864;1189;26009;-84
2021/09/07 09:18:46;;;;;;;5.80;3.90;;;;;;;21.09;50.52;97539.23;115847;1189;23784;-84
2021/09/07 09:21:28;;;;;;;6.20;4.20;;;;;;;21.19;50.82;97539.89;115822;1188;27371;-84
2021/09/07 09:24:14;;;;;;;7.00;4.30;;;;;;;21.40;49.83;97541.44;115859;1188;23242;-83
2021/09/07 09:26:58;;;;;;;7.50;4.30;;;;;;;21.42;49.06;97538.46;115867;1188;27431;-84
2021/09/07 09:29:28;;;;;;;9.00;4.50;;;;;;;21.47;49.16;97539.98;115852;1189;28991;-83
2021/09/07 09:31:59;;;;;;;7.30;4.70;;;;;;;21.61;48.42;97535.95;115901;1188;25727;-83
2021/09/07 09:34:28;;;;;;;6.10;4.10;;;;;;;21.71;48.65;97533.88;115882;1192;24133;-83
2021/09/07 09:37:06;;;;;;;6.50;4.70;;;;;;;21.65;48.39;97532.89;115865;1188;45167;-82
2021/09/07 09:39:47;;;;;;;6.60;4.00;;;;;;;21.57;47.80;97533.95;115856;1188;25269;-84
2021/09/07 09:42:18;;;;;;;7.50;4.60;;;;;;;21.50;47.91;97533.75;115855;1193;23105;-84
2021/09/07 09:44:46;;;;;;;7.10;4.30;;;;;;;21.46;48.06;97534.75;115892;1188;25129;-84
2021/09/07 09:47:38;;;;;;;7.40;4.50;;;;;;;21.45;47.26;97529.58;115847;1188;29112;-84
2021/09/07 09:50:09;;;;;;;9.20;4.90;;;;;;;21.47;47.72;97528.26;115896;1188;25039;-84
2021/09/07 09:52:40;;;;;;;7.80;5.00;;;;;;;21.49;47.51;97527.77;115842;1190;25213;-83
2021/09/07 09:55:12;;;;;;;6.60;4.40;;;;;;;21.45;47.89;97526.79;115833;1189;26276;-84
2021/09/07 09:57:42;;;;;;;10.00;5.40;;;;;;;21.32;47.63;97525.36;115851;1188;31011;-84
2021/09/07 10:00:13;;;;;;;10.30;5.90;;;;;;;21.23;48.14;97521.73;115828;1188;25374;-85
2021/09/07 10:02:43;;;;;;;10.00;6.10;;;;;;;21.13;48.01;97526.46;115849;1189;24044;-84
2021/09/07 10:05:14;;;;;;;9.70;6.10;;;;;;;20.95;48.45;97527.90;115851;1188;24141;-84
2021/09/07 10:07:45;;;;;;;9.00;5.60;;;;;;;20.81;48.44;97525.70;115870;1188;24680;-83
2021/09/07 10:10:21;;;;;;;9.50;5.40;;;;;;;20.61;47.83;97528.41;115822;1188;28958;-84
2021/09/07 10:12:56;;;;;;;8.90;5.90;;;;;;;20.50;48.56;97523.55;115863;1188;23698;-83
2021/09/07 10:15:28;;;;;;;7.60;5.40;;;;;;;20.61;49.17;97525.71;115881;1196;24647;-82
2021/09/07 10:21:19;;;;;;;8.30;5.30;;;;;;;21.09;49.12;97522.55;115809;1188;24868;-84
2021/09/07 10:23:59;;;;;;;8.50;5.80;;;;;;;21.30;49.56;97521.36;115748;1196;24014;-84
2021/09/07 10:26:52;;;;;;;8.20;5.60;;;;;;;21.38;48.83;97519.27;115835;1188;23986;-83
2021/09/07 10:29:40;;;;;;;8.50;5.60;;;;;;;21.29;48.61;97516.24;115901;1188;23073;-84
2021/09/07 10:32:23;;;;;;;8.30;5.30;;;;;;;21.24;48.93;97517.59;115870;1188;22891;-84
2021/09/07 10:35:14;;;;;;;8.80;6.10;;;;;;;21.30;49.00;97518.86;115883;1188;24111;-84
2021/09/07 10:38:09;;;;;;;9.80;5.90;;;;;;;21.26;48.60;97513.33;115748;1188;26959;-85
2021/09/07 10:40:43;;;;;;;8.70;5.60;;;;;;;21.25;48.68;97518.20;115472;1190;26381;-85
2021/09/07 10:43:12;;;;;;;8.80;5.60;;;;;;;21.24;48.59;97517.42;115804;1189;25195;-85
2021/09/07 10:45:41;;;;;;;7.60;5.50;;;;;;;21.24;48.43;97516.52;115833;1188;24244;-84
2021/09/07 10:48:33;;;;;;;8.70;5.90;;;;;;;21.23;48.74;97514.55;115856;1188;23296;-85
2021/09/07 10:51:03;;;;;;;9.10;5.40;;;;;;;21.30;48.97;97512.74;115884;1188;23019;-84
2021/09/07 10:53:32;;;;;;;10.10;6.50;;;;;;;21.39;48.28;97511.64;115857;1188;23884;-84
2021/09/07 10:56:25;;;;;;;8.80;5.90;;;;;;;21.35;48.22;97515.27;115884;1188;26573;-84
2021/09/07 10:58:54;;;;;;;9.00;6.00;;;;;;;21.36;48.74;97517.02;115654;1196;24441;-84
2021/09/07 11:01:30;;;;;;;9.60;6.50;;;;;;;21.47;48.52;97517.75;115923;1190;22758;-84
2021/09/07 11:04:32;;;;;;;7.90;5.50;;;;;;;21.54;48.73;97511.88;115887;1196;23048;-83
2021/09/07 11:07:21;;;;;;;10.40;6.40;;;;;;;21.48;48.64;97513.34;115905;1189;23252;-84
2021/09/07 11:09:53;;;;;;;10.30;6.50;;;;;;;21.36;48.32;97510.77;115939;1188;22646;-84
2021/09/07 11:12:32;;;;;;;8.70;5.60;;;;;;;21.27;48.43;97509.46;115865;1188;25005;-84
2021/09/07 11:15:09;;;;;;;9.60;6.00;;;;;;;21.32;47.61;97508.16;115806;1188;27942;-84
2021/09/07 11:17:49;;;;;;;9.70;5.80;;;;;;;21.44;47.74;97508.92;115844;1188;24443;-84
2021/09/07 11:20:17;;;;;;;;;;;;;;;21.56;47.13;97508.85;115889;1188;22561;-84
2021/09/07 11:22:46;;;;;;;7.50;5.70;;;;;;;21.61;46.95;97508.74;115864;1188;23702;-84
2021/09/07 11:25:17;;;;;;;8.50;5.70;;;;;;;21.65;47.51;97510.65;115840;1188;26078;-84
2021/09/07 11:27:54;;;;;;;10.00;6.60;;;;;;;21.72;46.65;97504.39;115871;1188;31735;-84
2021/09/07 11:30:31;;;;;;;10.70;6.00;;;;;;;21.70;46.15;97504.63;115871;1191;24474;-84
2021/09/07 11:33:01;;;;;;;9.60;5.90;;;;;;;21.69;46.74;97503.98;115890;1188;27662;-84
2021/09/07 11:35:32;;;;;;;9.10;6.30;;;;;;;21.70;47.24;97499.77;115882;1188;24373;-83
2021/09/07 11:38:03;;;;;;;9.10;6.40;;;;;;;21.81;46.71;97498.70;115860;1188;23618;-83
2021/09/07 11:40:32;;;;;;;9.60;6.60;;;;;;;21.90;46.49;97493.41;115835;1188;24084;-84
2021/09/07 11:43:02;;;;;;;9.80;6.30;;;;;;;21.97;45.65;97493.41;115843;1188;26693;-84